createdAt,value
2017-06-26T00:00:28.750Z,1003.89
2017-06-26T00:01:28.730Z,1003.94
2017-06-26T00:02:28.718Z,1003.93
2017-06-26T00:03:28.700Z,1003.99
2017-06-26T00:04:28.686Z,1003.95
2017-06-26T00:05:28.675Z,1003.97
2017-06-26T00:06:28.654Z,1003.98
2017-06-26T00:07:28.638Z,1004.01
2017-06-26T00:08:28.625Z,1003.97
2017-06-26T00:09:28.605Z,1003.98
2017-06-26T00:10:28.599Z,1003.9
2017-06-26T00:11:28.593Z,1003.94
2017-06-26T00:12:28.569Z,1004.01
2017-06-26T00:13:28.545Z,1003.98
2017-06-26T00:14:28.617Z,1003.97
2017-06-26T00:15:28.522Z,1003.97
2017-06-26T00:16:28.504Z,1003.94
2017-06-26T00:17:28.491Z,1003.93
2017-06-26T00:18:28.479Z,1003.97
2017-06-26T00:19:28.461Z,1003.94
2017-06-26T00:20:28.444Z,1003.99
2017-06-26T00:21:28.423Z,1003.97
2017-06-26T00:22:28.415Z,1003.94
2017-06-26T00:23:28.400Z,1003.92
2017-06-26T00:24:28.406Z,1003.93
2017-06-26T00:25:28.364Z,1003.94
2017-06-26T00:26:28.399Z,1003.88
2017-06-26T00:27:28.340Z,1003.85
2017-06-26T00:28:28.329Z,1003.92
2017-06-26T00:29:28.307Z,1003.91
2017-06-26T00:30:28.340Z,1003.87
2017-06-26T00:31:28.281Z,1003.97
2017-06-26T00:32:28.359Z,1003.93
2017-06-26T00:33:28.246Z,1003.99
2017-06-26T00:34:28.228Z,1003.9
2017-06-26T00:35:28.216Z,1003.89
2017-06-26T00:36:28.250Z,1003.88
2017-06-26T00:37:28.187Z,1003.86
2017-06-26T00:38:28.169Z,1003.91
2017-06-26T00:39:28.152Z,1003.95
2017-06-26T00:40:28.138Z,1003.99
2017-06-26T00:41:28.122Z,1003.97
2017-06-26T00:42:28.113Z,1004.02
2017-06-26T00:43:28.088Z,1004.01
2017-06-26T00:44:28.079Z,1004.05
2017-06-26T00:45:28.060Z,1004.04
2017-06-26T00:46:28.048Z,1004.02
2017-06-26T00:47:28.038Z,1004.03
2017-06-26T00:48:28.015Z,1004.04
2017-06-26T00:49:27.998Z,1003.97
2017-06-26T00:50:27.988Z,1003.97
2017-06-26T00:51:27.971Z,1003.94
2017-06-26T00:52:27.961Z,1003.96
2017-06-26T00:53:27.939Z,1003.95
2017-06-26T00:54:27.931Z,1003.91
2017-06-26T00:55:27.908Z,1003.92
2017-06-26T00:56:27.888Z,1003.92
2017-06-26T00:57:27.881Z,1003.92
2017-06-26T00:58:27.869Z,1003.93
2017-06-26T00:59:27.850Z,1003.91
2017-06-26T01:00:27.829Z,1003.95
2017-06-26T01:01:27.821Z,1004.03
2017-06-26T01:02:27.802Z,1004.02
2017-06-26T01:03:27.788Z,1004.02
2017-06-26T01:04:27.768Z,1004.1
2017-06-26T01:05:27.759Z,1004.09
2017-06-26T01:06:27.738Z,1004.15
2017-06-26T01:07:27.731Z,1004.15
2017-06-26T01:08:27.709Z,1004.18
2017-06-26T01:09:27.698Z,1004.14
2017-06-26T01:10:27.680Z,1004.17
2017-06-26T01:11:27.661Z,1004.13
2017-06-26T01:12:27.669Z,1004.18
2017-06-26T01:13:27.631Z,1004.14
2017-06-26T01:14:27.619Z,1004.15
2017-06-26T01:15:27.598Z,1004.08
2017-06-26T01:16:27.591Z,1004.03
2017-06-26T01:17:27.569Z,1004.07
2017-06-26T01:18:27.557Z,1004.08
2017-06-26T01:19:27.549Z,1004.08
2017-06-26T01:20:27.525Z,1004
2017-06-26T01:21:27.510Z,1004
2017-06-26T01:22:27.494Z,1004.01
2017-06-26T01:23:27.478Z,1004.06
2017-06-26T01:24:27.467Z,1004.06
2017-06-26T01:25:27.450Z,1004.03
2017-06-26T01:26:27.431Z,1004.07
2017-06-26T01:27:27.418Z,1004.11
2017-06-26T01:28:27.403Z,1004.12
2017-06-26T01:29:27.388Z,1004.14
2017-06-26T01:30:27.373Z,1004.11
2017-06-26T01:31:27.354Z,1004.11
2017-06-26T01:32:27.338Z,1004.06
2017-06-26T01:33:27.337Z,1004.02
2017-06-26T01:34:27.307Z,1004.02
2017-06-26T01:35:27.298Z,1004.01
2017-06-26T01:36:27.278Z,1003.97
2017-06-26T01:37:27.271Z,1003.92
2017-06-26T01:38:27.246Z,1003.95
2017-06-26T01:39:27.240Z,1003.94
2017-06-26T01:40:27.217Z,1003.93
2017-06-26T01:41:27.208Z,1003.93
2017-06-26T01:42:27.188Z,1003.99
2017-06-26T01:43:27.170Z,1003.9
2017-06-26T01:44:27.157Z,1003.91
2017-06-26T01:45:27.138Z,1003.96
2017-06-26T01:46:27.128Z,1003.93
2017-06-26T01:47:27.106Z,1003.96
2017-06-26T01:48:27.097Z,1003.9
2017-06-26T01:49:27.077Z,1003.98
2017-06-26T01:50:27.066Z,1003.97
2017-06-26T01:51:27.048Z,1003.94
2017-06-26T01:52:27.033Z,1003.91
2017-06-26T01:53:27.017Z,1003.97
2017-06-26T01:54:27.000Z,1003.98
2017-06-26T01:55:26.998Z,1003.94
2017-06-26T01:56:26.977Z,1003.99
2017-06-26T01:57:26.960Z,1003.95
2017-06-26T01:58:26.943Z,1003.93
2017-06-26T01:59:26.924Z,1003.91
2017-06-26T02:00:26.916Z,1003.96
2017-06-26T02:01:26.896Z,1003.94
2017-06-26T02:02:26.879Z,1003.9
2017-06-26T02:03:26.863Z,1003.97
2017-06-26T02:04:26.848Z,1003.9
2017-06-26T02:05:26.843Z,1003.88
2017-06-26T02:06:26.820Z,1003.9
2017-06-26T02:07:26.805Z,1003.9
2017-06-26T02:08:26.786Z,1003.88
2017-06-26T02:09:26.776Z,1003.93
2017-06-26T02:10:26.760Z,1003.97
2017-06-26T02:11:26.742Z,1003.93
2017-06-26T02:12:26.725Z,1003.93
2017-06-26T02:13:26.798Z,1003.9
2017-06-26T02:14:26.697Z,1003.98
2017-06-26T02:15:26.688Z,1003.95
2017-06-26T02:16:26.669Z,1003.95
2017-06-26T02:17:26.655Z,1003.93
2017-06-26T02:18:26.641Z,1003.96
2017-06-26T02:19:26.627Z,1003.97
2017-06-26T02:20:26.607Z,1003.97
2017-06-26T02:21:26.630Z,1003.98
2017-06-26T02:22:26.572Z,1003.94
2017-06-26T02:23:26.569Z,1003.95
2017-06-26T02:24:26.549Z,1004.02
2017-06-26T02:25:26.566Z,1004
2017-06-26T02:26:26.518Z,1004.02
2017-06-26T02:27:26.597Z,1003.96
2017-06-26T02:28:26.487Z,1003.99
2017-06-26T02:29:26.477Z,1003.92
2017-06-26T02:30:26.462Z,1003.93
2017-06-26T02:31:26.455Z,1003.94
2017-06-26T02:32:26.428Z,1003.91
2017-06-26T02:33:26.412Z,1003.91
2017-06-26T02:34:26.397Z,1003.92
2017-06-26T02:35:26.388Z,1003.89
2017-06-26T02:36:26.363Z,1003.91
2017-06-26T02:37:26.398Z,1003.89
2017-06-26T02:38:26.336Z,1003.92
2017-06-26T02:39:26.319Z,1003.91
2017-06-26T02:40:26.297Z,1003.95
2017-06-26T02:41:26.288Z,1003.98
2017-06-26T02:42:26.269Z,1003.93
2017-06-26T02:43:26.257Z,1003.99
2017-06-26T02:44:26.239Z,1003.93
2017-06-26T02:45:26.221Z,1003.92
2017-06-26T02:46:26.208Z,1003.92
2017-06-26T02:47:26.188Z,1003.98
2017-06-26T02:48:26.173Z,1003.85
2017-06-26T02:49:26.160Z,1003.9
2017-06-26T02:50:26.145Z,1003.89
2017-06-26T02:51:26.130Z,1003.9
2017-06-26T02:52:26.116Z,1003.94
2017-06-26T02:53:26.101Z,1003.97
2017-06-26T02:54:26.086Z,1003.99
2017-06-26T02:55:26.066Z,1004.02
2017-06-26T02:56:26.058Z,1004.06
2017-06-26T02:57:26.033Z,1004.05
2017-06-26T02:58:26.021Z,1004.08
2017-06-26T02:59:26.010Z,1004.13
2017-06-26T03:00:25.991Z,1004.11
2017-06-26T03:01:25.978Z,1004.12
2017-06-26T03:02:25.959Z,1004.15
2017-06-26T03:03:25.946Z,1004.2
2017-06-26T03:04:25.930Z,1004.2
2017-06-26T03:05:25.919Z,1004.23
2017-06-26T03:06:25.900Z,1004.31
2017-06-26T03:07:25.881Z,1004.3
2017-06-26T03:08:25.867Z,1004.31
2017-06-26T03:09:25.850Z,1004.32
2017-06-26T03:10:25.840Z,1004.32
2017-06-26T03:11:25.831Z,1004.33
2017-06-26T03:12:25.803Z,1004.37
2017-06-26T03:13:25.792Z,1004.41
2017-06-26T03:14:25.783Z,1004.38
2017-06-26T03:15:25.760Z,1004.41
2017-06-26T03:16:25.742Z,1004.43
2017-06-26T03:17:25.731Z,1004.38
2017-06-26T03:18:25.720Z,1004.34
2017-06-26T03:19:25.700Z,1004.35
2017-06-26T03:20:25.686Z,1004.34
2017-06-26T03:21:25.671Z,1004.36
2017-06-26T03:22:25.650Z,1004.38
2017-06-26T03:23:25.638Z,1004.34
2017-06-26T03:24:25.622Z,1004.39
2017-06-26T03:25:25.612Z,1004.34
2017-06-26T03:26:25.590Z,1004.32
2017-06-26T03:27:25.574Z,1004.34
2017-06-26T03:28:25.562Z,1004.36
2017-06-26T03:29:25.550Z,1004.36
2017-06-26T03:30:25.533Z,1004.36
2017-06-26T03:31:25.520Z,1004.35
2017-06-26T03:32:25.500Z,1004.37
2017-06-26T03:33:25.484Z,1004.38
2017-06-26T03:34:25.470Z,1004.4
2017-06-26T03:35:25.450Z,1004.42
2017-06-26T03:36:25.440Z,1004.39
2017-06-26T03:37:25.419Z,1004.42
2017-06-26T03:38:25.404Z,1004.41
2017-06-26T03:39:25.389Z,1004.46
2017-06-26T03:40:25.379Z,1004.52
2017-06-26T03:41:25.359Z,1004.52
2017-06-26T03:42:25.350Z,1004.53
2017-06-26T03:43:25.327Z,1004.53
2017-06-26T03:44:25.318Z,1004.51
2017-06-26T03:45:25.299Z,1004.52
2017-06-26T03:46:25.288Z,1004.58
2017-06-26T03:47:25.269Z,1004.59
2017-06-26T03:48:25.254Z,1004.59
2017-06-26T03:49:25.236Z,1004.6
2017-06-26T03:50:25.221Z,1004.61
2017-06-26T03:51:25.207Z,1004.56
2017-06-26T03:52:25.225Z,1004.63
2017-06-26T03:53:25.174Z,1004.7
2017-06-26T03:54:25.169Z,1004.67
2017-06-26T03:55:25.146Z,1004.68
2017-06-26T03:56:25.140Z,1004.65
2017-06-26T03:57:25.120Z,1004.6
2017-06-26T03:58:25.101Z,1004.65
2017-06-26T03:59:25.082Z,1004.6
2017-06-26T04:00:25.071Z,1004.65
2017-06-26T04:01:25.056Z,1004.64
2017-06-26T04:02:25.043Z,1004.62
2017-06-26T04:03:25.021Z,1004.65
2017-06-26T04:04:25.013Z,1004.65
2017-06-26T04:05:25.000Z,1004.69
2017-06-26T04:06:24.980Z,1004.62
2017-06-26T04:07:24.965Z,1004.6
2017-06-26T04:08:24.945Z,1004.57
2017-06-26T04:09:24.932Z,1004.55
2017-06-26T04:10:24.923Z,1004.56
2017-06-26T04:11:24.903Z,1004.59
2017-06-26T04:12:24.888Z,1004.58
2017-06-26T04:13:24.894Z,1004.6
2017-06-26T04:14:24.952Z,1004.63
2017-06-26T04:15:24.840Z,1004.64
2017-06-26T04:16:24.829Z,1004.64
2017-06-26T04:17:24.810Z,1004.65
2017-06-26T04:18:24.829Z,1004.69
2017-06-26T04:19:24.782Z,1004.71
2017-06-26T04:20:24.765Z,1004.72
2017-06-26T04:21:24.746Z,1004.76
2017-06-26T04:22:24.832Z,1004.77
2017-06-26T04:23:24.720Z,1004.79
2017-06-26T04:24:24.799Z,1004.77
2017-06-26T04:25:24.691Z,1004.81
2017-06-26T04:26:24.769Z,1004.81
2017-06-26T04:27:24.661Z,1004.82
2017-06-26T04:28:24.642Z,1004.84
2017-06-26T04:29:24.628Z,1004.89
2017-06-26T04:30:24.706Z,1004.86
2017-06-26T04:31:24.595Z,1004.82
2017-06-26T04:32:24.629Z,1004.81
2017-06-26T04:33:24.562Z,1004.8
2017-06-26T04:34:24.551Z,1004.79
2017-06-26T04:35:24.529Z,1004.78
2017-06-26T04:36:24.519Z,1004.79
2017-06-26T04:37:24.503Z,1004.79
2017-06-26T04:38:24.537Z,1004.8
2017-06-26T04:39:24.472Z,1004.82
2017-06-26T04:40:24.561Z,1004.84
2017-06-26T04:41:24.441Z,1004.84
2017-06-26T04:42:24.480Z,1004.89
2017-06-26T04:43:24.409Z,1004.86
2017-06-26T04:44:24.400Z,1004.89
2017-06-26T04:45:24.376Z,1004.87
2017-06-26T04:46:24.370Z,1004.86
2017-06-26T04:47:24.347Z,1004.83
2017-06-26T04:48:24.340Z,1004.83
2017-06-26T04:49:24.320Z,1004.86
2017-06-26T04:50:24.300Z,1004.86
2017-06-26T04:51:24.291Z,1004.89
2017-06-26T04:52:24.275Z,1004.85
2017-06-26T04:53:24.258Z,1004.85
2017-06-26T04:54:24.242Z,1004.87
2017-06-26T04:55:24.225Z,1004.9
2017-06-26T04:56:24.211Z,1004.89
2017-06-26T04:57:24.195Z,1004.86
2017-06-26T04:58:24.181Z,1004.85
2017-06-26T04:59:24.172Z,1004.86
2017-06-26T05:00:24.151Z,1004.84
2017-06-26T05:01:24.142Z,1004.88
2017-06-26T05:02:24.122Z,1004.89
2017-06-26T05:03:24.111Z,1004.9
2017-06-26T05:04:24.091Z,1004.95
2017-06-26T05:05:24.081Z,1004.96
2017-06-26T05:06:24.066Z,1004.96
2017-06-26T05:07:24.050Z,1004.99
2017-06-26T05:08:24.031Z,1004.97
2017-06-26T05:09:24.015Z,1004.98
2017-06-26T05:10:24.001Z,1004.97
2017-06-26T05:11:23.985Z,1004.97
2017-06-26T05:12:23.969Z,1004.99
2017-06-26T05:13:23.954Z,1005.02
2017-06-26T05:14:23.941Z,1005
2017-06-26T05:15:23.932Z,1005.01
2017-06-26T05:16:23.916Z,1005.07
2017-06-26T05:17:23.893Z,1005.05
2017-06-26T05:18:23.881Z,1005.05
2017-06-26T05:19:23.864Z,1005.04
2017-06-26T05:20:23.850Z,1005.05
2017-06-26T05:21:23.842Z,1005.09
2017-06-26T05:22:23.818Z,1005.09
2017-06-26T05:23:23.805Z,1005.08
2017-06-26T05:24:23.790Z,1005.08
2017-06-26T05:25:23.780Z,1005.05
2017-06-26T05:26:23.766Z,1005.05
2017-06-26T05:27:23.751Z,1005.06
2017-06-26T05:28:23.731Z,1005.1
2017-06-26T05:29:23.720Z,1005.11
2017-06-26T05:30:23.707Z,1005.15
2017-06-26T05:31:23.691Z,1005.17
2017-06-26T05:32:23.673Z,1005.18
2017-06-26T05:33:23.658Z,1005.18
2017-06-26T05:34:23.642Z,1005.18
2017-06-26T05:35:23.630Z,1005.13
2017-06-26T05:36:23.623Z,1005.17
2017-06-26T05:37:23.602Z,1005.15
2017-06-26T05:38:23.586Z,1005.18
2017-06-26T05:39:23.574Z,1005.2
2017-06-26T05:40:23.564Z,1005.22
2017-06-26T05:41:23.543Z,1005.19
2017-06-26T05:42:23.528Z,1005.29
2017-06-26T05:43:23.512Z,1005.3
2017-06-26T05:44:23.499Z,1005.3
2017-06-26T05:45:23.486Z,1005.28
2017-06-26T05:46:23.472Z,1005.28
2017-06-26T05:47:23.464Z,1005.27
2017-06-26T05:48:23.442Z,1005.29
2017-06-26T05:49:23.429Z,1005.28
2017-06-26T05:50:23.412Z,1005.31
2017-06-26T05:51:23.410Z,1005.28
2017-06-26T05:52:23.382Z,1005.3
2017-06-26T05:53:23.375Z,1005.35
2017-06-26T05:54:23.365Z,1005.37
2017-06-26T05:55:23.345Z,1005.41
2017-06-26T05:56:23.330Z,1005.38
2017-06-26T05:57:23.313Z,1005.39
2017-06-26T05:58:23.307Z,1005.33
2017-06-26T05:59:23.283Z,1005.36
2017-06-26T06:00:23.275Z,1005.39
2017-06-26T06:01:23.252Z,1005.38
2017-06-26T06:02:23.244Z,1005.4
2017-06-26T06:03:23.225Z,1005.4
2017-06-26T06:04:23.212Z,1005.39
2017-06-26T06:05:23.201Z,1005.4
2017-06-26T06:06:23.182Z,1005.42
2017-06-26T06:07:23.171Z,1005.43
2017-06-26T06:08:23.153Z,1005.46
2017-06-26T06:09:23.145Z,1005.48
2017-06-26T06:10:23.129Z,1005.45
2017-06-26T06:11:23.114Z,1005.46
2017-06-26T06:12:23.095Z,1005.45
2017-06-26T06:13:23.082Z,1005.52
2017-06-26T06:14:23.066Z,1005.5
2017-06-26T06:15:23.103Z,1005.52
2017-06-26T06:16:23.044Z,1005.5
2017-06-26T06:17:23.083Z,1005.56
2017-06-26T06:18:23.012Z,1005.49
2017-06-26T06:19:23.002Z,1005.48
2017-06-26T06:20:22.983Z,1005.49
2017-06-26T06:21:22.998Z,1005.51
2017-06-26T06:22:22.955Z,1005.55
2017-06-26T06:23:22.943Z,1005.51
2017-06-26T06:24:22.933Z,1005.53
2017-06-26T06:25:22.969Z,1005.5
2017-06-26T06:26:22.904Z,1005.49
2017-06-26T06:27:22.939Z,1005.49
2017-06-26T06:28:22.890Z,1005.52
2017-06-26T06:29:22.861Z,1005.57
2017-06-26T06:30:22.845Z,1005.59
2017-06-26T06:31:22.829Z,1005.56
2017-06-26T06:32:22.817Z,1005.61
2017-06-26T06:33:22.802Z,1005.62
2017-06-26T06:34:22.793Z,1005.65
2017-06-26T06:35:22.783Z,1005.66
2017-06-26T06:36:22.764Z,1005.63
2017-06-26T06:37:22.755Z,1005.66
2017-06-26T06:38:22.740Z,1005.65
2017-06-26T06:39:22.721Z,1005.64
2017-06-26T06:40:22.708Z,1005.64
2017-06-26T06:41:22.715Z,1005.65
2017-06-26T06:42:22.683Z,1005.67
2017-06-26T06:43:22.673Z,1005.68
2017-06-26T06:44:22.655Z,1005.69
2017-06-26T06:45:22.639Z,1005.67
2017-06-26T06:46:22.630Z,1005.71
2017-06-26T06:47:22.615Z,1005.72
2017-06-26T06:48:22.601Z,1005.73
2017-06-26T06:49:22.595Z,1005.71
2017-06-26T06:50:22.574Z,1005.76
2017-06-26T06:51:22.572Z,1005.78
2017-06-26T06:52:22.547Z,1005.75
2017-06-26T06:53:22.531Z,1005.73
2017-06-26T06:54:22.523Z,1005.74
2017-06-26T06:55:22.504Z,1005.76
2017-06-26T06:56:22.490Z,1005.74
2017-06-26T06:57:22.480Z,1005.73
2017-06-26T06:58:22.463Z,1005.71
2017-06-26T06:59:22.455Z,1005.7
2017-06-26T07:00:22.439Z,1005.74
2017-06-26T07:01:22.423Z,1005.73
2017-06-26T07:02:22.407Z,1005.71
2017-06-26T07:03:22.394Z,1005.72
2017-06-26T07:04:22.385Z,1005.77
2017-06-26T07:05:22.364Z,1005.71
2017-06-26T07:06:22.355Z,1005.77
2017-06-26T07:07:22.340Z,1005.73
2017-06-26T07:08:22.332Z,1005.72
2017-06-26T07:09:22.312Z,1005.69
2017-06-26T07:10:22.306Z,1005.74
2017-06-26T07:11:22.284Z,1005.77
2017-06-26T07:12:22.273Z,1005.75
2017-06-26T07:13:22.262Z,1005.71
2017-06-26T07:14:22.241Z,1005.76
2017-06-26T07:15:22.225Z,1005.75
2017-06-26T07:16:22.214Z,1005.76
2017-06-26T07:17:22.202Z,1005.75
2017-06-26T07:18:22.189Z,1005.78
2017-06-26T07:19:22.172Z,1005.78
2017-06-26T07:20:22.157Z,1005.79
2017-06-26T07:21:22.149Z,1005.83
2017-06-26T07:22:22.132Z,1005.84
2017-06-26T07:23:22.122Z,1005.81
2017-06-26T07:24:22.102Z,1005.84
2017-06-26T07:25:22.088Z,1005.84
2017-06-26T07:26:22.080Z,1005.86
2017-06-26T07:27:22.062Z,1005.86
2017-06-26T07:28:22.042Z,1005.83
2017-06-26T07:29:22.031Z,1005.79
2017-06-26T07:30:22.020Z,1005.82
2017-06-26T07:31:22.005Z,1005.83
2017-06-26T07:32:22.001Z,1005.85
2017-06-26T07:33:21.981Z,1005.84
2017-06-26T07:34:21.964Z,1005.8
2017-06-26T07:35:21.950Z,1005.81
2017-06-26T07:36:21.935Z,1005.79
2017-06-26T07:37:21.934Z,1005.83
2017-06-26T07:38:21.908Z,1005.83
2017-06-26T07:39:21.895Z,1005.81
2017-06-26T07:40:21.882Z,1005.83
2017-06-26T07:41:21.872Z,1005.84
2017-06-26T07:42:21.861Z,1005.82
2017-06-26T07:43:21.845Z,1005.84
2017-06-26T07:44:21.832Z,1005.84
2017-06-26T07:45:21.822Z,1005.81
2017-06-26T07:46:21.804Z,1005.84
2017-06-26T07:47:21.792Z,1005.83
2017-06-26T07:48:21.781Z,1005.88
2017-06-26T07:49:21.764Z,1005.93
2017-06-26T07:50:21.752Z,1005.88
2017-06-26T07:51:21.743Z,1005.93
2017-06-26T07:52:21.731Z,1005.93
2017-06-26T07:53:21.720Z,1005.95
2017-06-26T07:54:21.701Z,1005.94
2017-06-26T07:55:21.701Z,1005.98
2017-06-26T07:56:21.682Z,1006.07
2017-06-26T07:57:21.666Z,1006.04
2017-06-26T07:58:21.651Z,1005.98
2017-06-26T07:59:21.640Z,1006.04
2017-06-26T08:00:21.632Z,1006.06
2017-06-26T08:01:21.614Z,1006.04
2017-06-26T08:02:21.605Z,1006.06
2017-06-26T08:03:21.592Z,1006.05
2017-06-26T08:04:21.574Z,1006.11
2017-06-26T08:05:21.561Z,1006.07
2017-06-26T08:06:21.552Z,1006.08
2017-06-26T08:07:21.544Z,1006.05
2017-06-26T08:08:21.531Z,1006.1
2017-06-26T08:09:21.522Z,1006.1
2017-06-26T08:10:21.502Z,1006.1
2017-06-26T08:11:21.492Z,1006.15
2017-06-26T08:12:21.482Z,1006.17
2017-06-26T08:13:21.470Z,1006.21
2017-06-26T08:14:21.460Z,1006.28
2017-06-26T08:15:21.441Z,1006.26
2017-06-26T08:16:21.428Z,1006.29
2017-06-26T08:17:21.420Z,1006.26
2017-06-26T08:18:21.407Z,1006.26
2017-06-26T08:19:21.391Z,1006.27
2017-06-26T08:20:21.375Z,1006.27
2017-06-26T08:21:21.378Z,1006.3
2017-06-26T08:22:21.357Z,1006.3
2017-06-26T08:23:21.341Z,1006.34
2017-06-26T08:24:21.333Z,1006.31
2017-06-26T08:25:21.320Z,1006.31
2017-06-26T08:26:21.309Z,1006.36
2017-06-26T08:27:21.295Z,1006.29
2017-06-26T08:28:21.285Z,1006.27
2017-06-26T08:29:21.270Z,1006.32
2017-06-26T08:30:21.261Z,1006.4
2017-06-26T08:31:21.261Z,1006.38
2017-06-26T08:32:21.240Z,1006.39
2017-06-26T08:33:21.233Z,1006.43
2017-06-26T08:34:21.211Z,1006.48
2017-06-26T08:35:21.211Z,1006.43
2017-06-26T08:36:21.191Z,1006.43
2017-06-26T08:37:21.182Z,1006.48
2017-06-26T08:38:21.163Z,1006.49
2017-06-26T08:39:21.150Z,1006.48
2017-06-26T08:40:21.151Z,1006.46
2017-06-26T08:41:21.132Z,1006.42
2017-06-26T08:42:21.119Z,1006.43
2017-06-26T08:43:21.107Z,1006.5
2017-06-26T08:44:21.096Z,1006.5
2017-06-26T08:45:21.087Z,1006.48
2017-06-26T08:46:21.073Z,1006.42
2017-06-26T08:47:21.061Z,1006.54
2017-06-26T08:48:21.051Z,1006.49
2017-06-26T08:49:21.040Z,1006.54
2017-06-26T08:50:21.034Z,1006.49
2017-06-26T08:51:21.052Z,1006.54
2017-06-26T08:52:20.998Z,1006.57
2017-06-26T08:53:20.992Z,1006.48
2017-06-26T08:54:20.981Z,1006.52
2017-06-26T08:55:20.970Z,1006.58
2017-06-26T08:56:20.955Z,1006.53
2017-06-26T08:57:20.952Z,1006.56
2017-06-26T08:58:20.944Z,1006.53
2017-06-26T08:59:20.972Z,1006.47
2017-06-26T09:00:20.911Z,1006.53
2017-06-26T09:01:20.900Z,1006.5
2017-06-26T09:02:20.891Z,1006.47
2017-06-26T09:03:20.878Z,1006.52
2017-06-26T09:04:20.873Z,1006.53
2017-06-26T09:05:20.908Z,1006.45
2017-06-26T09:06:20.848Z,1006.5
2017-06-26T09:07:20.841Z,1006.51
2017-06-26T09:08:20.823Z,1006.49
2017-06-26T09:09:20.817Z,1006.52
2017-06-26T09:10:20.799Z,1006.49
2017-06-26T09:11:20.802Z,1006.54
2017-06-26T09:12:20.781Z,1006.64
2017-06-26T09:13:20.770Z,1006.58
2017-06-26T09:14:20.758Z,1006.59
2017-06-26T09:15:20.750Z,1006.62
2017-06-26T09:16:20.741Z,1006.62
2017-06-26T09:17:20.723Z,1006.66
2017-06-26T09:18:20.720Z,1006.68
2017-06-26T09:19:20.700Z,1006.68
2017-06-26T09:20:20.689Z,1006.75
2017-06-26T09:21:20.680Z,1006.69
2017-06-26T09:22:20.669Z,1006.8
2017-06-26T09:23:20.661Z,1006.81
2017-06-26T09:24:20.644Z,1006.75
2017-06-26T09:25:20.641Z,1006.84
2017-06-26T09:26:20.621Z,1006.82
2017-06-26T09:27:20.618Z,1006.83
2017-06-26T09:28:20.599Z,1006.89
2017-06-26T09:29:20.590Z,1006.87
2017-06-26T09:30:20.581Z,1006.91
2017-06-26T09:31:20.568Z,1006.86
2017-06-26T09:32:20.557Z,1006.83
2017-06-26T09:33:20.550Z,1006.81
2017-06-26T09:34:20.537Z,1006.79
2017-06-26T09:35:20.531Z,1006.9
2017-06-26T09:36:20.520Z,1006.83
2017-06-26T09:37:20.512Z,1006.81
2017-06-26T09:38:20.500Z,1006.76
2017-06-26T09:39:20.490Z,1006.78
2017-06-26T09:40:20.492Z,1006.76
2017-06-26T09:41:20.471Z,1006.75
2017-06-26T09:42:20.472Z,1006.78
2017-06-26T09:43:20.461Z,1006.79
2017-06-26T09:44:20.451Z,1006.76
2017-06-26T09:45:20.442Z,1006.69
2017-06-26T09:46:20.445Z,1006.73
2017-06-26T09:47:20.421Z,1006.76
2017-06-26T09:48:20.410Z,1006.72
2017-06-26T09:49:20.400Z,1006.72
2017-06-26T09:50:20.390Z,1006.73
2017-06-26T09:51:20.392Z,1006.76
2017-06-26T09:52:20.378Z,1006.77
2017-06-26T09:53:20.370Z,1006.72
2017-06-26T09:54:20.359Z,1006.79
2017-06-26T09:55:20.350Z,1006.75
2017-06-26T09:56:20.354Z,1006.72
2017-06-26T09:57:20.339Z,1006.74
2017-06-26T09:58:20.326Z,1006.76
2017-06-26T09:59:20.320Z,1006.68
2017-06-26T10:00:20.322Z,1006.69
2017-06-26T10:01:20.312Z,1006.62
2017-06-26T10:02:20.301Z,1006.66
2017-06-26T10:03:20.289Z,1006.66
2017-06-26T10:04:20.292Z,1006.68
2017-06-26T10:05:20.277Z,1006.66
2017-06-26T10:06:20.280Z,1006.67
2017-06-26T10:07:20.267Z,1006.65
2017-06-26T10:08:20.260Z,1006.65
2017-06-26T10:09:20.252Z,1006.63
2017-06-26T10:10:20.242Z,1006.71
2017-06-26T10:11:20.240Z,1006.69
2017-06-26T10:12:20.229Z,1006.71
2017-06-26T10:13:20.222Z,1006.73
2017-06-26T10:14:20.218Z,1006.78
2017-06-26T10:15:20.209Z,1006.79
2017-06-26T10:16:20.202Z,1006.76
2017-06-26T10:17:20.192Z,1006.77
2017-06-26T10:18:20.187Z,1006.74
2017-06-26T10:19:20.181Z,1006.78
2017-06-26T10:20:20.175Z,1006.76
2017-06-26T10:21:20.167Z,1006.78
2017-06-26T10:22:20.162Z,1006.77
2017-06-26T10:23:20.150Z,1006.84
2017-06-26T10:24:20.150Z,1006.87
2017-06-26T10:25:20.136Z,1006.83
2017-06-26T10:26:20.130Z,1006.85
2017-06-26T10:27:20.120Z,1006.84
2017-06-26T10:28:20.117Z,1006.86
2017-06-26T10:29:20.109Z,1006.97
2017-06-26T10:30:20.099Z,1006.93
2017-06-26T10:31:20.090Z,1006.86
2017-06-26T10:32:20.088Z,1006.76
2017-06-26T10:33:20.076Z,1006.78
2017-06-26T10:34:20.064Z,1006.71
2017-06-26T10:35:20.061Z,1006.81
2017-06-26T10:36:20.050Z,1006.81
2017-06-26T10:37:20.042Z,1006.8
2017-06-26T10:38:20.038Z,1006.82
2017-06-26T10:39:20.030Z,1006.84
2017-06-26T10:40:20.016Z,1006.84
2017-06-26T10:41:20.011Z,1006.79
2017-06-26T10:42:19.995Z,1006.83
2017-06-26T10:43:19.990Z,1006.86
2017-06-26T10:44:19.980Z,1006.85
2017-06-26T10:45:19.979Z,1006.85
2017-06-26T10:46:19.966Z,1006.82
2017-06-26T10:47:19.957Z,1006.86
2017-06-26T10:48:19.949Z,1006.94
2017-06-26T10:49:19.940Z,1006.91
2017-06-26T10:50:19.930Z,1006.82
2017-06-26T10:51:19.931Z,1006.86
2017-06-26T10:52:19.921Z,1006.88
2017-06-26T10:53:19.929Z,1006.93
2017-06-26T10:54:19.901Z,1006.88
2017-06-26T10:55:19.892Z,1006.89
2017-06-26T10:56:19.881Z,1006.98
2017-06-26T10:57:19.872Z,1006.93
2017-06-26T10:58:19.861Z,1006.98
2017-06-26T10:59:19.850Z,1006.94
2017-06-26T11:00:19.842Z,1006.97
2017-06-26T11:01:19.839Z,1006.91
2017-06-26T11:02:19.827Z,1006.9
2017-06-26T11:03:19.821Z,1006.84
2017-06-26T11:04:19.811Z,1006.83
2017-06-26T11:05:19.800Z,1006.83
2017-06-26T11:06:19.792Z,1006.86
2017-06-26T11:07:19.783Z,1006.88
2017-06-26T11:08:19.769Z,1006.84
2017-06-26T11:09:19.763Z,1006.85
2017-06-26T11:10:19.751Z,1006.86
2017-06-26T11:11:19.751Z,1006.89
2017-06-26T11:12:19.735Z,1006.87
2017-06-26T11:13:19.728Z,1006.87
2017-06-26T11:14:19.721Z,1006.86
2017-06-26T11:15:19.714Z,1006.86
2017-06-26T11:16:19.701Z,1006.88
2017-06-26T11:17:19.693Z,1006.87
2017-06-26T11:18:19.684Z,1006.87
2017-06-26T11:19:19.670Z,1006.93
2017-06-26T11:20:19.675Z,1006.87
2017-06-26T11:21:19.660Z,1006.87
2017-06-26T11:22:19.641Z,1006.92
2017-06-26T11:23:19.657Z,1006.93
2017-06-26T11:24:19.635Z,1006.91
2017-06-26T11:25:19.617Z,1006.86
2017-06-26T11:26:19.611Z,1006.9
2017-06-26T11:27:19.599Z,1006.92
2017-06-26T11:28:19.596Z,1006.95
2017-06-26T11:29:19.580Z,1006.95
2017-06-26T11:30:19.575Z,1006.94
2017-06-26T11:31:19.565Z,1006.94
2017-06-26T11:32:19.558Z,1006.94
2017-06-26T11:33:19.551Z,1006.92
2017-06-26T11:34:19.543Z,1006.91
2017-06-26T11:35:19.533Z,1006.97
2017-06-26T11:36:19.523Z,1007.01
2017-06-26T11:37:19.511Z,1007
2017-06-26T11:38:19.505Z,1007.04
2017-06-26T11:39:19.497Z,1007.02
2017-06-26T11:40:19.494Z,1007.01
2017-06-26T11:41:19.481Z,1007.02
2017-06-26T11:42:19.473Z,1007.03
2017-06-26T11:43:19.464Z,1006.99
2017-06-26T11:44:19.458Z,1007.02
2017-06-26T11:45:19.451Z,1007
2017-06-26T11:46:19.440Z,1006.96
2017-06-26T11:47:19.433Z,1006.96
2017-06-26T11:48:19.424Z,1006.95
2017-06-26T11:49:19.426Z,1006.96
2017-06-26T11:50:19.403Z,1007
2017-06-26T11:51:19.392Z,1007.02
2017-06-26T11:52:19.389Z,1007.03
2017-06-26T11:53:19.491Z,1007
2017-06-26T11:54:19.365Z,1007.03
2017-06-26T11:55:19.361Z,1007.04
2017-06-26T11:56:19.350Z,1007.01
2017-06-26T11:57:19.342Z,1007.01
2017-06-26T11:58:19.331Z,1007.02
2017-06-26T11:59:19.342Z,1007
2017-06-26T12:00:19.319Z,1006.97
2017-06-26T12:01:19.407Z,1006.96
2017-06-26T12:02:19.304Z,1006.96
2017-06-26T12:03:19.342Z,1006.97
2017-06-26T12:04:19.284Z,1007.05
2017-06-26T12:05:19.271Z,1007.04
2017-06-26T12:06:19.267Z,1007.02
2017-06-26T12:07:19.255Z,1007.01
2017-06-26T12:08:19.251Z,1007.05